Blue Spring, Kentucky
Current Conditions -  °F | °C
As of 9:58 PM on Wednesday 22 Oct 2014 (Local Time) from KHOP Reporting Station
Clear Clear  
Wind Chill: 47°   Ceiling: Unl
Heat Index: 47°   Visibility: 10mi
Dew Point: 42°   Wind: 3mph
Humidity: 84%   Direction: 40°NE
Pressure: 30.22"   Gusts: NA
Location:  36.8031°N, 87.8159°W
Report Text: KHOP 230258Z AUTO 04003KT 10SM CLR 08/06 A3022 RMK AO2 SLP236 T00820056 55000
Loading
Personal Weather Stations






























Interactive Weather Map
Tropical Storm Tracking
New forecast layout! Learn more

10-Day Weather Forecast

Advertisements
Track Severe Weather on mobile